Time;durP1;ratioP1;P1;durP2;ratioP2;P2;SDS_P1;SDS_P2;PMS_P1;PMS_P2;Temp;Humidity;BMP_temperature;BMP_pressure;BME280_temperature;BME280_humidity;BME280_pressure;Samples;Min_cycle;Max_cycle;Signal;HPM_P1;HPM_P2
2022/04/13 00:01:27;;;;;;;19.20;8.60;;;13.90;53.60;;;;;;5045810;28;25106;-69
2022/04/13 00:03:53;;;;;;;12.77;7.38;;;13.80;54.20;;;;;;5063841;28;25114;-68
2022/04/13 00:06:18;;;;;;;15.80;8.13;;;13.80;55.10;;;;;;5045652;28;25098;-68
2022/04/13 00:08:44;;;;;;;13.70;8.43;;;13.70;55.40;;;;;;5064499;28;25055;-68
2022/04/13 00:11:10;;;;;;;16.63;7.47;;;13.70;56.00;;;;;;5063927;28;25051;-69
2022/04/13 00:13:36;;;;;;;17.83;8.05;;;13.70;56.30;;;;;;5063939;28;25069;-69
2022/04/13 00:16:01;;;;;;;14.00;7.45;;;13.70;57.20;;;;;;5046521;28;25081;-68
2022/04/13 00:18:27;;;;;;;15.30;7.28;;;13.60;57.00;;;;;;5065383;28;25139;-68
2022/04/13 00:20:52;;;;;;;17.98;7.90;;;13.50;58.20;;;;;;5065013;28;25152;-67
2022/04/13 00:23:18;;;;;;;19.92;7.57;;;13.50;58.40;;;;;;5064430;28;25096;-69
2022/04/13 00:25:44;;;;;;;15.98;7.93;;;13.50;59.10;;;;;;5063956;28;25179;-69
2022/04/13 00:28:10;;;;;;;19.70;8.77;;;13.50;59.40;;;;;;5063894;28;25074;-69
2022/04/13 00:30:37;;;;;;;18.52;8.60;;;13.60;60.10;;;;;;5063417;28;25049;-69
2022/04/13 00:33:03;;;;;;;15.45;8.00;;;13.50;60.00;;;;;;5062789;28;25061;-69
2022/04/13 00:35:28;;;;;;;17.70;8.55;;;13.60;59.60;;;;;;5061760;28;25055;-68
2022/04/13 00:37:54;;;;;;;23.30;8.77;;;13.60;59.40;;;;;;5064284;28;25066;-68
2022/04/13 00:40:20;;;;;;;15.95;8.38;;;13.70;58.60;;;;;;5062823;28;25055;-69
2022/04/13 00:42:45;;;;;;;20.13;8.75;;;13.70;58.10;;;;;;5063097;28;25158;-69
2022/04/13 00:45:11;;;;;;;19.58;8.20;;;13.70;58.80;;;;;;5067277;28;25096;-68
2022/04/13 00:47:39;;;;;;;22.83;8.25;;;13.60;58.90;;;;;;5070955;28;25130;-68
2022/04/13 00:50:06;;;;;;;27.08;8.77;;;13.70;59.20;;;;;;5073529;28;25085;-68
2022/04/13 00:52:35;;;;;;;21.60;8.38;;;13.70;59.20;;;;;;5037866;28;25102;-68
2022/04/13 00:55:02;;;;;;;19.38;7.95;;;13.70;59.10;;;;;;5063209;28;25145;-68
2022/04/13 00:57:31;;;;;;;21.95;9.00;;;13.80;59.40;;;;;;5064639;28;25056;-68
2022/04/13 00:59:57;;;;;;;18.50;11.63;;;13.70;59.70;;;;;;5065094;28;25073;-68
2022/04/13 01:02:23;;;;;;;17.73;9.73;;;13.70;60.50;;;;;;5063445;28;25067;-67
2022/04/13 01:04:51;;;;;;;23.70;9.68;;;13.60;60.90;;;;;;5062409;28;25063;-68
2022/04/13 01:07:17;;;;;;;19.10;10.30;;;13.60;61.40;;;;;;5046207;28;25081;-69
2022/04/13 01:09:42;;;;;;;16.60;9.60;;;13.60;62.10;;;;;;5063695;28;25057;-68
2022/04/13 01:12:08;;;;;;;15.57;9.40;;;13.60;62.60;;;;;;5063594;28;25075;-68
2022/04/13 01:14:34;;;;;;;25.95;10.45;;;13.60;63.00;;;;;;5045721;28;25037;-69
2022/04/13 01:17:00;;;;;;;20.15;10.65;;;13.60;63.40;;;;;;5063945;28;25130;-69
2022/04/13 01:19:27;;;;;;;20.45;10.32;;;13.60;63.90;;;;;;5063092;28;25063;-66
2022/04/13 01:21:53;;;;;;;18.75;10.45;;;13.50;64.90;;;;;;5063968;28;25074;-68
2022/04/13 01:24:20;;;;;;;23.02;11.57;;;13.40;66.00;;;;;;5046752;28;25044;-68
2022/04/13 01:26:46;;;;;;;23.77;11.13;;;13.40;68.40;;;;;;5065357;28;25066;-68
2022/04/13 01:29:12;;;;;;;21.33;11.27;;;13.40;70.30;;;;;;5065020;28;25049;-68
2022/04/13 01:31:40;;;;;;;22.13;11.63;;;13.40;69.70;;;;;;5063926;28;25173;-68
2022/04/13 01:34:06;;;;;;;20.55;11.38;;;13.40;70.10;;;;;;5062517;28;25074;-68
2022/04/13 01:36:33;;;;;;;18.73;11.35;;;13.40;69.90;;;;;;5062751;28;25093;-68
2022/04/13 01:38:58;;;;;;;19.23;11.32;;;13.50;69.50;;;;;;5062868;28;25104;-68
2022/04/13 01:41:24;;;;;;;20.58;11.38;;;13.50;70.50;;;;;;5046427;28;25112;-67
2022/04/13 01:43:49;;;;;;;20.00;10.73;;;13.40;70.80;;;;;;5046154;28;25065;-68
2022/04/13 01:46:15;;;;;;;24.42;11.70;;;13.50;71.50;;;;;;5069167;28;25048;-67
2022/04/13 01:48:41;;;;;;;24.90;11.98;;;13.50;70.50;;;;;;5074541;28;25064;-67
2022/04/13 01:51:07;;;;;;;21.15;11.70;;;13.50;69.90;;;;;;5068338;28;25064;-68
2022/04/13 01:53:32;;;;;;;24.20;10.77;;;13.50;70.50;;;;;;5050477;28;25066;-67
2022/04/13 01:55:58;;;;;;;18.60;11.57;;;13.60;70.60;;;;;;5066167;28;25067;-69
2022/04/13 01:58:24;;;;;;;21.38;11.50;;;13.70;69.70;;;;;;5050338;28;25065;-68
2022/04/13 02:00:54;;;;;;;21.35;12.68;;;13.60;69.40;;;;;;5064802;28;25103;-67
2022/04/13 02:03:21;;;;;;;23.90;11.52;;;13.50;70.20;;;;;;5066710;28;25061;-67
2022/04/13 02:05:47;;;;;;;21.35;12.15;;;13.60;70.40;;;;;;5066096;28;25058;-68
2022/04/13 02:08:13;;;;;;;21.17;12.35;;;13.50;69.70;;;;;;5066906;28;25073;-69
2022/04/13 02:10:38;;;;;;;25.40;13.90;;;13.50;70.70;;;;;;5067417;28;25058;-68
2022/04/13 02:13:04;;;;;;;22.67;12.70;;;13.30;72.40;;;;;;5066170;28;25074;-67
2022/04/13 02:15:29;;;;;;;21.95;13.40;;;13.30;74.10;;;;;;5066566;28;25076;-69
2022/04/13 02:17:55;;;;;;;24.25;14.55;;;13.40;74.00;;;;;;5067095;28;25137;-68
2022/04/13 02:20:20;;;;;;;23.10;14.82;;;13.40;75.10;;;;;;5071093;28;25158;-69
2022/04/13 02:22:46;;;;;;;25.95;14.52;;;13.40;74.70;;;;;;5069003;28;25069;-67
2022/04/13 02:25:12;;;;;;;24.63;14.40;;;13.30;75.70;;;;;;5037965;28;25135;-68
2022/04/13 02:27:38;;;;;;;25.60;14.20;;;13.40;76.20;;;;;;5064680;28;25069;-69
2022/04/13 02:30:04;;;;;;;22.70;14.73;;;13.40;77.30;;;;;;5064668;28;25080;-68
2022/04/13 02:32:30;;;;;;;26.67;15.07;;;13.40;76.80;;;;;;5065987;28;25133;-68
2022/04/13 02:34:55;;;;;;;22.58;14.52;;;13.30;77.40;;;;;;5065068;28;25150;-69
2022/04/13 02:37:21;;;;;;;28.83;15.25;;;13.30;77.90;;;;;;5065831;28;25140;-68
2022/04/13 02:39:47;;;;;;;24.25;14.27;;;13.30;78.00;;;;;;5046948;28;25087;-68
2022/04/13 02:42:15;;;;;;;28.20;14.63;;;13.30;78.80;;;;;;5053147;28;25079;-69
2022/04/13 02:44:41;;;;;;;25.10;14.43;;;13.40;78.60;;;;;;5063438;28;25049;-67
2022/04/13 02:47:07;;;;;;;27.63;15.60;;;13.30;79.50;;;;;;5049008;28;25079;-69
2022/04/13 02:49:33;;;;;;;31.23;15.40;;;13.40;79.50;;;;;;5066284;28;25056;-68
2022/04/13 02:51:58;;;;;;;27.10;16.15;;;13.40;79.10;;;;;;5063837;28;25077;-67
2022/04/13 02:54:24;;;;;;;27.30;15.60;;;13.40;79.80;;;;;;5064324;28;25103;-68
2022/04/13 02:56:49;;;;;;;25.75;16.15;;;13.40;79.70;;;;;;5064341;28;25080;-68
2022/04/13 02:59:15;;;;;;;24.05;15.95;;;13.40;79.20;;;;;;5062883;28;25062;-67
2022/04/13 03:01:43;;;;;;;20.48;14.15;;;13.30;81.40;;;;;;5064743;28;25179;-70
2022/04/13 03:04:09;;;;;;;23.27;14.35;;;13.30;82.90;;;;;;5063924;28;25087;-67
2022/04/13 03:06:34;;;;;;;24.83;15.25;;;13.40;81.50;;;;;;5046118;28;25078;-69
2022/04/13 03:09:00;;;;;;;21.38;14.00;;;13.50;80.60;;;;;;5063966;28;25126;-68
2022/04/13 03:11:26;;;;;;;23.17;14.38;;;13.50;80.10;;;;;;5063764;28;25161;-69
2022/04/13 03:13:51;;;;;;;23.52;13.77;;;13.50;79.30;;;;;;5045175;28;25147;-69
2022/04/13 03:16:17;;;;;;;25.75;14.27;;;13.50;78.90;;;;;;5045493;28;25052;-68
2022/04/13 03:18:42;;;;;;;20.73;13.52;;;13.40;79.80;;;;;;5064267;28;25065;-68
2022/04/13 03:21:08;;;;;;;19.77;13.40;;;13.30;80.90;;;;;;5064659;28;24866;-67
2022/04/13 03:23:33;;;;;;;26.02;14.10;;;13.30;82.20;;;;;;5045158;28;25053;-68
2022/04/13 03:25:59;;;;;;;21.75;13.20;;;13.20;82.60;;;;;;5064132;28;25071;-69
2022/04/13 03:28:25;;;;;;;21.63;13.25;;;13.20;84.50;;;;;;5045738;28;25149;-68
2022/04/13 03:30:51;;;;;;;20.70;13.45;;;13.20;84.80;;;;;;5065191;28;25112;-68
2022/04/13 03:33:17;;;;;;;20.52;12.73;;;13.20;85.90;;;;;;5064550;28;25056;-69
2022/04/13 03:35:43;;;;;;;19.35;12.50;;;13.20;86.10;;;;;;5066405;28;25081;-69
2022/04/13 03:38:09;;;;;;;22.67;12.98;;;13.30;85.60;;;;;;5072193;28;25070;-69
2022/04/13 03:40:34;;;;;;;22.23;13.32;;;13.30;84.00;;;;;;5070413;28;25069;-69
2022/04/13 03:43:00;;;;;;;24.45;14.63;;;13.20;84.60;;;;;;5069890;28;25180;-69
2022/04/13 03:45:26;;;;;;;26.73;15.68;;;13.10;85.70;;;;;;5064901;28;25104;-68
2022/04/13 03:47:51;;;;;;;24.17;13.75;;;13.10;87.80;;;;;;5067303;28;25075;-68
2022/04/13 03:50:17;;;;;;;22.30;13.90;;;13.10;88.30;;;;;;5069673;28;25085;-69
2022/04/13 03:52:43;;;;;;;29.10;14.30;;;13.20;89.20;;;;;;5071527;28;25089;-68
2022/04/13 03:55:09;;;;;;;24.52;13.38;;;13.20;89.00;;;;;;5068457;28;25095;-68
2022/04/13 03:57:35;;;;;;;28.08;13.77;;;13.30;88.50;;;;;;5066430;28;25079;-68
2022/04/13 04:00:02;;;;;;;22.77;13.23;;;13.40;87.70;;;;;;5065379;28;25139;-69
2022/04/13 04:02:27;;;;;;;21.23;13.27;;;13.40;88.00;;;;;;5062062;28;25140;-69
2022/04/13 04:04:54;;;;;;;25.23;13.57;;;13.40;86.20;;;;;;5063043;28;25093;-67
2022/04/13 04:07:19;;;;;;;24.40;13.52;;;13.40;85.10;;;;;;5044683;28;25102;-68
2022/04/13 04:09:45;;;;;;;21.77;12.82;;;13.40;85.40;;;;;;5063385;28;25048;-68
2022/04/13 04:12:11;;;;;;;23.67;13.30;;;13.40;85.90;;;;;;5064229;28;25150;-69
2022/04/13 04:14:37;;;;;;;22.98;13.65;;;13.30;86.10;;;;;;5063041;28;25067;-69
2022/04/13 04:17:03;;;;;;;24.88;14.35;;;13.30;87.10;;;;;;5063067;28;25070;-69
2022/04/13 04:19:28;;;;;;;22.83;13.52;;;13.20;89.40;;;;;;5063722;28;25131;-68
2022/04/13 04:21:55;;;;;;;26.70;15.27;;;13.20;90.00;;;;;;5064209;28;25068;-68
2022/04/13 04:24:21;;;;;;;24.02;14.35;;;13.30;89.90;;;;;;5062660;28;25143;-68
2022/04/13 04:26:47;;;;;;;27.00;15.90;;;13.20;89.80;;;;;;5064122;28;25062;-68
2022/04/13 04:29:12;;;;;;;23.75;15.32;;;13.20;90.00;;;;;;5077753;28;25052;-68
2022/04/13 04:31:50;;;;;;;30.15;16.63;;;13.20;90.40;;;;;;5069620;28;25061;-67
2022/04/13 04:34:18;;;;;;;30.58;15.85;;;13.10;90.60;;;;;;5069006;28;25074;-69
2022/04/13 04:36:44;;;;;;;28.73;16.85;;;13.10;90.80;;;;;;5068857;28;25077;-68
2022/04/13 04:39:10;;;;;;;28.77;15.73;;;13.00;91.20;;;;;;5068209;28;25073;-69
2022/04/13 04:41:35;;;;;;;30.63;17.25;;;12.90;91.80;;;;;;5048117;28;25074;-69
2022/04/13 04:44:01;;;;;;;29.50;18.58;;;12.90;92.20;;;;;;5064579;28;25056;-69
2022/04/13 04:46:27;;;;;;;29.23;18.15;;;12.90;92.70;;;;;;5063953;28;25093;-69
2022/04/13 04:48:53;;;;;;;27.20;17.83;;;12.90;92.80;;;;;;5063578;28;25180;-69
2022/04/13 04:51:19;;;;;;;33.90;18.85;;;12.90;93.20;;;;;;5063184;28;25134;-68
2022/04/13 04:53:47;;;;;;;37.38;20.38;;;12.90;93.80;;;;;;5062733;28;25072;-68
2022/04/13 04:56:13;;;;;;;27.42;20.35;;;12.90;93.20;;;;;;5060934;28;25106;-68
2022/04/13 04:58:39;;;;;;;35.22;19.92;;;12.90;93.70;;;;;;5050363;28;25137;-69
2022/04/13 05:01:04;;;;;;;33.72;20.40;;;12.80;93.90;;;;;;5058830;28;25056;-68
2022/04/13 05:03:32;;;;;;;38.08;22.02;;;12.80;94.30;;;;;;5061471;28;25104;-68
2022/04/13 05:05:57;;;;;;;34.20;21.23;;;12.70;94.80;;;;;;5063231;28;25080;-68
2022/04/13 05:08:23;;;;;;;29.88;21.73;;;12.70;95.80;;;;;;5062916;28;25134;-69
2022/04/13 05:10:51;;;;;;;31.42;21.73;;;12.70;96.00;;;;;;5065170;28;25063;-68
2022/04/13 05:13:20;;;;;;;37.67;21.90;;;12.80;96.70;;;;;;5052521;28;25118;-69
2022/04/13 05:15:46;;;;;;;33.30;24.55;;;12.70;96.30;;;;;;5062430;28;25073;-68
2022/04/13 05:18:12;;;;;;;36.15;23.45;;;12.70;97.60;;;;;;5063196;28;25057;-68
2022/04/13 05:20:39;;;;;;;32.30;21.45;;;12.70;97.50;;;;;;5061186;28;25138;-69
2022/04/13 05:23:04;;;;;;;35.60;21.63;;;12.70;97.60;;;;;;5069640;28;25052;-68
2022/04/13 05:25:30;;;;;;;33.90;22.38;;;12.70;98.90;;;;;;5067408;28;25083;-69
2022/04/13 05:27:56;;;;;;;41.42;23.85;;;12.80;98.70;;;;;;5067003;28;25110;-69
2022/04/13 05:30:21;;;;;;;37.92;23.20;;;12.70;98.60;;;;;;5067892;28;25065;-69
2022/04/13 05:33:00;;;;;;;35.55;22.90;;;12.70;99.00;;;;;;5068655;28;25077;-69
2022/04/13 05:35:26;;;;;;;38.25;23.15;;;12.80;99.40;;;;;;5054260;28;25043;-69
2022/04/13 05:37:53;;;;;;;34.03;22.17;;;12.80;99.40;;;;;;5069962;28;25100;-69
2022/04/13 05:40:18;;;;;;;37.33;23.63;;;12.80;99.60;;;;;;5070216;28;25138;-69
2022/04/13 05:42:44;;;;;;;39.25;22.27;;;12.70;99.90;;;;;;5068384;28;25066;-69
2022/04/13 05:45:11;;;;;;;34.90;24.73;;;12.80;99.90;;;;;;5067632;28;25112;-70
2022/04/13 05:47:38;;;;;;;32.63;22.38;;;12.80;99.90;;;;;;5068325;28;25153;-69
2022/04/13 05:50:04;;;;;;;32.63;22.20;;;12.80;99.90;;;;;;5069069;28;25167;-70
2022/04/13 05:52:30;;;;;;;33.50;20.95;;;12.80;99.90;;;;;;5068477;28;25109;-67
2022/04/13 05:54:56;;;;;;;31.50;19.88;;;12.80;99.90;;;;;;5067932;28;25063;-70
2022/04/13 05:57:21;;;;;;;32.95;19.60;;;12.90;99.90;;;;;;5068286;28;25068;-68
2022/04/13 05:59:47;;;;;;;33.95;19.15;;;12.90;99.90;;;;;;5068468;28;25136;-69
2022/04/13 06:02:13;;;;;;;27.55;17.35;;;13.00;99.90;;;;;;5070572;28;25141;-70
2022/04/13 06:04:38;;;;;;;37.55;17.88;;;13.00;99.90;;;;;;5070942;28;25068;-70
2022/04/13 06:07:04;;;;;;;27.33;17.42;;;13.00;99.90;;;;;;5071573;28;25061;-68
2022/04/13 06:09:29;;;;;;;28.15;17.58;;;13.00;99.90;;;;;;5068882;28;25054;-69
2022/04/13 06:11:55;;;;;;;25.15;15.85;;;13.00;99.90;;;;;;5068188;28;25116;-69
2022/04/13 06:14:21;;;;;;;25.55;17.40;;;13.10;99.90;;;;;;5070253;28;25107;-69
2022/04/13 06:16:46;;;;;;;23.73;15.90;;;13.10;99.90;;;;;;5069323;28;25080;-68
2022/04/13 06:19:12;;;;;;;24.63;15.05;;;13.30;99.90;;;;;;5069487;28;25097;-68
2022/04/13 06:21:38;;;;;;;24.88;14.80;;;13.30;99.90;;;;;;5067867;28;25053;-68
2022/04/13 06:24:04;;;;;;;25.88;14.27;;;13.40;99.00;;;;;;5068803;28;25055;-70
2022/04/13 06:26:29;;;;;;;27.80;13.55;;;13.60;98.30;;;;;;5069397;28;25105;-73
2022/04/13 06:28:55;;;;;;;23.25;13.07;;;13.60;97.20;;;;;;5069127;28;25070;-69
2022/04/13 06:31:20;;;;;;;20.35;11.75;;;13.70;95.80;;;;;;5068286;28;25128;-70
2022/04/13 06:33:46;;;;;;;17.90;10.75;;;13.70;94.70;;;;;;5069324;28;25069;-68
2022/04/13 06:36:12;;;;;;;15.57;10.57;;;13.70;94.40;;;;;;5050462;28;25099;-68
2022/04/13 06:38:40;;;;;;;17.52;11.05;;;13.80;92.90;;;;;;5066234;28;25078;-68
2022/04/13 06:41:07;;;;;;;14.35;9.00;;;13.70;92.20;;;;;;5071827;28;25145;-69
2022/04/13 06:43:33;;;;;;;18.77;10.43;;;13.60;92.20;;;;;;5072888;28;25085;-69
2022/04/13 06:45:58;;;;;;;16.73;9.75;;;13.60;90.90;;;;;;5069059;28;25106;-69
2022/04/13 06:48:24;;;;;;;18.55;10.23;;;13.60;91.60;;;;;;5067828;28;25068;-70
2022/04/13 06:50:52;;;;;;;17.42;9.10;;;13.60;91.60;;;;;;5068545;28;25162;-70
2022/04/13 06:53:18;;;;;;;18.05;9.20;;;13.70;91.70;;;;;;5071486;28;25082;-70
2022/04/13 06:55:45;;;;;;;11.32;7.80;;;13.80;91.10;;;;;;5067898;28;25110;-68
2022/04/13 06:58:11;;;;;;;16.70;7.82;;;13.90;90.40;;;;;;5066790;28;25105;-69
2022/04/13 07:00:37;;;;;;;14.25;7.55;;;14.00;88.50;;;;;;5068576;28;25092;-70
2022/04/13 07:03:02;;;;;;;22.20;8.57;;;13.90;86.70;;;;;;5067332;28;25083;-69
2022/04/13 07:05:28;;;;;;;16.63;7.97;;;14.00;85.70;;;;;;5053936;28;25106;-68
2022/04/13 07:07:59;;;;;;;16.23;9.02;;;13.90;85.10;;;;;;5066877;28;25134;-69
2022/04/13 07:10:27;;;;;;;15.75;8.00;;;13.90;84.90;;;;;;5072748;28;25139;-69
2022/04/13 07:12:52;;;;;;;14.90;7.78;;;14.00;83.80;;;;;;5068488;28;25086;-69
2022/04/13 07:15:18;;;;;;;15.25;8.48;;;14.10;83.80;;;;;;5069021;28;25074;-69
2022/04/13 07:17:45;;;;;;;19.90;8.95;;;14.10;82.80;;;;;;5066822;28;25053;-69
2022/04/13 07:20:11;;;;;;;14.00;8.52;;;14.10;82.50;;;;;;5066483;28;25064;-68
2022/04/13 07:22:50;;;;;;;17.48;9.10;;;14.10;82.20;;;;;;5067623;28;25167;-69
2022/04/13 07:25:17;;;;;;;12.18;8.88;;;14.00;82.70;;;;;;5069995;28;25088;-68
2022/04/13 07:27:43;;;;;;;18.48;9.05;;;13.90;83.60;;;;;;5073257;28;25126;-68
2022/04/13 07:30:09;;;;;;;16.30;9.05;;;13.80;85.50;;;;;;5069886;28;25084;-68
2022/04/13 07:32:34;;;;;;;15.45;8.45;;;13.90;86.70;;;;;;5065528;28;25057;-68
2022/04/13 07:35:00;;;;;;;20.85;8.32;;;13.90;85.40;;;;;;5065777;28;25129;-69
2022/04/13 07:37:26;;;;;;;14.88;8.48;;;14.00;84.10;;;;;;5065801;28;25059;-69
2022/04/13 07:39:52;;;;;;;14.60;7.43;;;14.10;82.80;;;;;;5065410;28;25060;-69
2022/04/13 07:42:22;;;;;;;12.93;7.30;;;14.20;81.50;;;;;;5067299;28;25056;-70
2022/04/13 07:44:48;;;;;;;13.98;7.63;;;14.20;81.00;;;;;;5068005;28;25060;-69
2022/04/13 07:47:14;;;;;;;18.48;8.30;;;14.40;79.40;;;;;;5067940;28;25065;-70
2022/04/13 07:49:41;;;;;;;13.98;6.93;;;14.50;78.60;;;;;;5064255;28;25084;-69
2022/04/13 07:52:07;;;;;;;15.18;8.40;;;14.30;75.60;;;;;;5066443;28;25092;-68
2022/04/13 07:54:33;;;;;;;16.25;8.68;;;14.30;77.90;;;;;;5067566;28;25058;-68
2022/04/13 07:56:59;;;;;;;15.45;7.72;;;14.30;76.50;;;;;;5068328;28;25146;-69
2022/04/13 07:59:24;;;;;;;14.27;9.13;;;14.20;77.80;;;;;;5065366;28;25058;-69
2022/04/13 08:01:50;;;;;;;16.17;8.95;;;14.20;77.10;;;;;;5065901;28;25074;-67
2022/04/13 08:04:15;;;;;;;16.55;7.88;;;14.40;77.70;;;;;;5065529;28;25068;-68
2022/04/13 08:06:41;;;;;;;14.63;7.82;;;14.50;75.50;;;;;;5064850;28;25062;-70
2022/04/13 08:09:06;;;;;;;12.30;8.00;;;14.50;74.70;;;;;;5065543;28;25096;-69
2022/04/13 08:11:32;;;;;;;13.65;7.90;;;14.50;74.60;;;;;;5066109;28;25090;-69
2022/04/13 08:13:58;;;;;;;14.90;7.32;;;14.50;72.00;;;;;;5066720;28;25056;-69
2022/04/13 08:16:23;;;;;;;14.32;6.72;;;14.40;74.10;;;;;;5066502;28;25054;-69
2022/04/13 08:18:49;;;;;;;12.38;7.72;;;14.50;75.00;;;;;;5067589;28;25062;-67
2022/04/13 08:21:14;;;;;;;16.17;7.65;;;14.60;73.10;;;;;;5073411;28;25058;-68
2022/04/13 08:23:40;;;;;;;11.95;7.50;;;14.70;72.00;;;;;;5073342;28;25101;-70
2022/04/13 08:26:05;;;;;;;14.90;8.13;;;14.70;71.40;;;;;;5072201;28;25072;-69
2022/04/13 08:28:31;;;;;;;15.98;8.95;;;14.70;71.80;;;;;;5067544;28;25052;-71
2022/04/13 08:30:56;;;;;;;10.93;8.43;;;14.80;71.50;;;;;;5066431;28;25109;-69
2022/04/13 08:33:22;;;;;;;15.88;8.70;;;14.80;70.60;;;;;;5066470;28;25112;-68
2022/04/13 08:35:47;;;;;;;22.27;9.43;;;14.80;70.80;;;;;;5065333;28;25064;-68
2022/04/13 08:38:13;;;;;;;18.40;8.95;;;14.80;70.60;;;;;;5065166;28;25057;-70
2022/04/13 08:40:45;;;;;;;16.30;9.43;;;14.80;70.50;;;;;;5065375;28;25096;-71
2022/04/13 08:43:11;;;;;;;16.23;8.68;;;14.80;71.20;;;;;;5065090;28;25062;-69
2022/04/13 08:45:47;;;;;;;17.95;7.60;;;14.90;70.20;;;;;;5068534;28;25104;-69
2022/04/13 08:48:18;;;;;;;19.00;8.85;;;14.80;70.60;;;;;;5067874;28;25059;-69
2022/04/13 08:50:45;;;;;;;15.27;8.20;;;14.80;70.80;;;;;;5065801;28;25163;-68
2022/04/13 08:53:12;;;;;;;14.73;7.82;;;14.80;69.80;;;;;;5066151;28;25091;-70
2022/04/13 08:55:47;;;;;;;17.48;8.40;;;14.70;70.80;;;;;;5066333;28;25071;-69
2022/04/13 08:58:34;;;;;;;16.63;8.32;;;14.80;70.90;;;;;;5068998;28;25059;-69
2022/04/13 09:01:03;;;;;;;19.63;9.40;;;14.70;70.70;;;;;;5070080;28;25080;-69
2022/04/13 09:03:48;;;;;;;19.77;8.73;;;14.70;71.00;;;;;;5068317;28;25104;-69
2022/04/13 09:06:15;;;;;;;17.65;9.15;;;14.70;72.00;;;;;;5069243;28;25122;-71
2022/04/13 09:08:54;;;;;;;16.48;9.10;;;14.60;73.40;;;;;;5064208;28;25105;-70
2022/04/13 09:11:21;;;;;;;20.58;10.15;;;14.60;73.80;;;;;;5072441;28;25092;-69
2022/04/13 09:13:46;;;;;;;22.98;10.55;;;14.80;74.00;;;;;;5071781;28;25089;-68
2022/04/13 09:16:13;;;;;;;19.70;10.50;;;14.90;72.40;;;;;;5059165;28;25087;-69
2022/04/13 09:18:39;;;;;;;19.35;9.55;;;14.90;71.60;;;;;;5068654;28;25099;-68
2022/04/13 09:21:04;;;;;;;34.30;11.43;;;15.00;71.00;;;;;;5067750;28;25072;-69
2022/04/13 09:23:30;;;;;;;22.10;9.48;;;15.00;69.20;;;;;;5068096;28;25054;-68
2022/04/13 09:25:58;;;;;;;24.70;8.88;;;15.00;70.00;;;;;;5068507;28;25060;-69
2022/04/13 09:28:25;;;;;;;18.23;9.10;;;14.90;69.70;;;;;;5052033;28;25054;-69
2022/04/13 09:30:52;;;;;;;19.42;8.60;;;14.90;69.00;;;;;;5068243;28;25060;-69
2022/04/13 09:33:17;;;;;;;19.75;9.55;;;14.90;69.50;;;;;;5067828;28;25129;-69
2022/04/13 09:35:43;;;;;;;18.15;8.98;;;15.00;69.30;;;;;;5068102;28;25078;-71
2022/04/13 09:38:09;;;;;;;18.23;8.93;;;15.00;69.20;;;;;;5068241;28;25071;-68
2022/04/13 09:40:38;;;;;;;20.88;9.15;;;15.00;69.70;;;;;;5068011;28;25057;-70
2022/04/13 09:43:08;;;;;;;23.10;9.25;;;15.00;68.20;;;;;;5068618;28;25078;-70
2022/04/13 09:45:36;;;;;;;31.38;10.25;;;14.90;67.30;;;;;;5067695;28;25107;-69
2022/04/13 09:48:06;;;;;;;21.40;9.70;;;14.80;68.70;;;;;;5068338;28;25103;-69
2022/04/13 09:50:32;;;;;;;17.90;9.52;;;15.00;68.40;;;;;;5071328;28;25081;-69
2022/04/13 09:53:05;;;;;;;22.38;9.45;;;15.10;67.70;;;;;;5072222;28;25150;-69
2022/04/13 09:55:37;;;;;;;13.80;7.35;;;14.90;67.10;;;;;;5070274;28;25164;-68
2022/04/13 09:58:07;;;;;;;17.85;7.70;;;14.90;67.00;;;;;;5068767;28;25110;-69
2022/04/13 10:00:35;;;;;;;15.52;9.18;;;15.00;66.70;;;;;;5067898;28;25062;-69
2022/04/13 10:03:29;;;;;;;15.32;9.23;;;14.90;65.90;;;;;;5067452;28;25076;-70
2022/04/13 10:05:57;;;;;;;18.63;8.85;;;15.00;66.90;;;;;;5049577;28;25064;-68
2022/04/13 10:08:24;;;;;;;18.30;8.98;;;15.10;66.90;;;;;;5066806;28;25074;-68
2022/04/13 10:10:56;;;;;;;18.10;10.15;;;15.10;66.20;;;;;;5066837;28;25097;-68
2022/04/13 10:13:41;;;;;;;17.88;11.52;;;15.00;68.50;;;;;;5067565;28;25060;-69
2022/04/13 10:16:09;;;;;;;19.80;10.85;;;15.20;68.50;;;;;;5067350;28;25089;-68
2022/04/13 10:18:57;;;;;;;20.10;11.55;;;15.10;70.50;;;;;;5067108;28;25054;-69
2022/04/13 10:21:51;;;;;;;16.45;10.50;;;15.20;69.00;;;;;;5067946;28;25073;-68
2022/04/13 10:24:28;;;;;;;17.42;9.23;;;15.20;67.20;;;;;;5067846;28;25063;-68
2022/04/13 10:27:08;;;;;;;15.75;9.77;;;15.10;66.50;;;;;;5066865;28;25070;-68
2022/04/13 10:29:39;;;;;;;18.38;9.75;;;15.20;66.60;;;;;;5067090;28;25084;-68
2022/04/13 10:32:10;;;;;;;17.52;9.25;;;15.40;65.50;;;;;;5067364;28;25054;-68
2022/04/13 10:34:48;;;;;;;20.35;9.38;;;15.30;64.10;;;;;;5066434;28;25115;-68
2022/04/13 10:37:20;;;;;;;20.27;9.07;;;15.20;63.90;;;;;;5066365;28;25071;-69
2022/04/13 10:39:47;;;;;;;18.07;9.97;;;15.10;63.30;;;;;;5066948;28;25082;-69
2022/04/13 10:42:17;;;;;;;14.57;8.00;;;15.30;63.70;;;;;;5066771;28;25058;-69
2022/04/13 10:45:05;;;;;;;17.23;9.02;;;15.30;64.10;;;;;;5066127;28;25129;-68
2022/04/13 10:47:58;;;;;;;18.98;8.20;;;15.50;61.80;;;;;;5066676;28;25049;-68
2022/04/13 10:50:46;;;;;;;;;;;15.50;61.00;;;;;;5066577;28;25043;-69
2022/04/13 10:53:20;;;;;;;11.40;6.15;;;15.60;60.80;;;;;;5055217;28;25082;-68
2022/04/13 10:55:57;;;;;;;14.13;6.90;;;15.60;58.10;;;;;;5065980;28;25066;-68
2022/04/13 10:58:29;;;;;;;21.00;7.93;;;15.70;57.90;;;;;;5068084;28;25094;-69
2022/04/13 11:01:03;;;;;;;15.43;8.18;;;15.80;57.50;;;;;;5053596;28;25060;-69
2022/04/13 11:03:34;;;;;;;14.43;8.20;;;15.70;60.30;;;;;;5066447;28;25148;-70
2022/04/13 11:06:01;;;;;;;15.93;8.40;;;15.60;60.70;;;;;;5066605;28;25098;-70
2022/04/13 11:08:39;;;;;;;19.30;7.88;;;15.60;64.60;;;;;;5070577;28;25123;-68
2022/04/13 11:11:05;;;;;;;17.20;8.20;;;15.70;64.10;;;;;;5073754;28;25070;-69
2022/04/13 11:13:32;;;;;;;13.90;8.07;;;15.60;63.60;;;;;;5073098;28;25077;-69
2022/04/13 11:16:22;;;;;;;18.83;8.73;;;15.50;63.00;;;;;;5068129;28;25056;-68
2022/04/13 11:19:11;;;;;;;16.55;8.18;;;15.60;65.80;;;;;;5066679;28;25059;-67
2022/04/13 11:22:02;;;;;;;16.77;7.65;;;15.50;66.40;;;;;;5058983;28;25093;-68
2022/04/13 11:24:34;;;;;;;17.10;8.35;;;15.30;67.50;;;;;;5065217;28;25077;-69
2022/04/13 11:27:01;;;;;;;15.50;8.43;;;15.20;70.20;;;;;;5066219;28;25085;-68
2022/04/13 11:29:37;;;;;;;20.35;9.07;;;15.20;70.20;;;;;;5066614;28;25130;-68
2022/04/13 11:32:04;;;;;;;18.40;9.07;;;15.30;70.20;;;;;;5066035;28;25064;-70
2022/04/13 11:34:50;;;;;;;16.10;8.35;;;15.30;70.30;;;;;;5069713;28;25044;-70
2022/04/13 11:37:24;;;;;;;15.75;6.63;;;15.50;71.60;;;;;;5048454;28;25074;-70
2022/04/13 11:39:59;;;;;;;16.55;6.78;;;15.50;67.60;;;;;;5066999;28;25071;-69
2022/04/13 11:42:32;;;;;;;16.23;8.60;;;15.50;68.70;;;;;;5067618;28;25131;-70
2022/04/13 11:45:03;;;;;;;;;;;15.70;70.70;;;;;;5067562;28;24851;-69
2022/04/13 11:47:50;;;;;;;18.35;8.75;;;15.70;69.40;;;;;;5078469;28;24063;-69
2022/04/13 11:50:18;;;;;;;18.40;8.95;;;15.70;70.20;;;;;;5070793;28;25085;-68
2022/04/13 11:53:08;;;;;;;12.40;7.40;;;15.80;71.50;;;;;;5072005;28;25139;-69
2022/04/13 11:55:40;;;;;;;12.57;7.03;;;16.00;66.10;;;;;;5067995;28;25106;-71
2022/04/13 11:58:08;;;;;;;16.10;6.97;;;15.90;62.50;;;;;;5080479;28;25070;-67
2022/04/13 12:00:54;;;;;;;16.23;6.78;;;16.00;65.80;;;;;;5072138;28;25086;-69
2022/04/13 12:03:25;;;;;;;14.75;6.47;;;16.00;63.80;;;;;;5068816;28;25066;-68
2022/04/13 12:05:53;;;;;;;10.60;5.03;;;16.00;59.70;;;;;;5068305;28;25056;-71
2022/04/13 12:08:25;;;;;;;10.50;4.78;;;16.00;59.70;;;;;;5059898;28;25120;-70
2022/04/13 12:10:56;;;;;;;11.93;4.78;;;16.30;58.10;;;;;;5069989;28;25090;-70
2022/04/13 12:13:22;;;;;;;10.63;4.07;;;16.70;57.30;;;;;;5079107;28;25113;-68
2022/04/13 12:15:52;;;;;;;11.52;4.05;;;17.00;53.10;;;;;;5083696;28;25070;-70
2022/04/13 12:18:19;;;;;;;14.20;4.22;;;17.20;50.80;;;;;;5088249;28;25100;-70
2022/04/13 12:20:47;;;;;;;10.05;3.70;;;17.00;46.30;;;;;;5074562;28;25063;-70
2022/04/13 12:23:27;;;;;;;9.60;3.65;;;16.90;45.50;;;;;;5082568;28;25068;-70
2022/04/13 12:25:55;;;;;;;11.57;3.97;;;16.60;46.80;;;;;;5085839;28;25115;-70
2022/04/13 12:28:22;;;;;;;8.02;4.00;;;16.50;48.00;;;;;;5084031;28;25115;-68
2022/04/13 12:31:08;;;;;;;10.60;3.90;;;16.30;48.60;;;;;;5081992;28;25067;-70
2022/04/13 12:33:36;;;;;;;13.63;4.40;;;16.40;51.00;;;;;;5086238;28;25148;-69
2022/04/13 12:36:10;;;;;;;9.57;4.13;;;16.70;50.00;;;;;;5084114;28;25074;-69
2022/04/13 12:38:38;;;;;;;10.50;4.50;;;16.90;46.40;;;;;;5083253;28;25068;-71